INFORMAÇÕES METEOROLÓGICAS
METAR FOR SBJV
ADDS - METARS form results

(0216 UTC 25 April 2019)
Data provider http://aviationweather.gov/metar/data/
 
Forecast for: SBJV (JOINVILLE , BR)
Text: TAF SBJV 242130Z 2500/2512 20003KT 9999 BKN015 TX22/2500Z TN19/2506Z RMK PDV
Forecast period: 0000 to 1200 UTC 25 April 2019
Forecast type: FROM: standard forecast or significant change
Winds: from the SSW (200 degrees) at 3 MPH (3 knots; 1.5 m/s)
Visibility: 6 or more miles 10+ km)
Ceiling: 1500 feet AGL
Clouds: broken clouds at 1500 feet AGL
Weather: no significant weather forecast for this period

 MAPA DO AEROPORTO

 INFORMAÇÕES DA PISTA
Pista 15 Tamanho da pista 5381 ft Largura da pista 148 ft
Elevação da pista 0 ft Ranhura da pista 330 ft Proa da pista 0
Pista 33 Tamanho da pista 5381 ft Largura da pista 148 ft
Elevação da pista 0 ft Ranhura da pista 0 ft Proa da pista 0

 FREQUÊNCIAS DO AEROPORTO
Tipo AFIS Nome TWR Frequência 118 MHZ

 AUXÍLIOS DE NAVEGAÇÃO PRÓXIMOS AO AEROPORTO
Tipo NDB Nome Gabi Frequência 245 KHZ
Tipo VOR-DME Nome Joinville Frequência 115100 KHZ





Powered by Virtual Airlines Manager [v2.6.2]